EW0609 Weather Reports


Display with metric or nautical units.
time (UTC)temp
F
wind
direction
speed
MPH
gust
MPH
rain 1hr
in
rain 24hr
in
rain mn
in
humidity
%
barometer
mb
20260904013308 80 73 7.0 13.0 0.00 0.00 0.00 50 1013.4
20260904012804 81 124 4.0 13.0 0.00 0.00 0.00 50 1013.5
20260904012647 80 104 7.0 13.0 0.00 0.00 0.00 52 1013.5
20260904011804 80 120 4.0 23.0 0.00 0.00 0.00 53 1013.4
20260904011304 80 131 7.0 23.0 0.00 0.00 0.00 54 1013.4
20260904010805 80 141 9.0 21.0 0.00 0.00 0.00 53 1013.5
20260904010710 81 138 11.0 21.0 0.00 0.00 0.00 52 1013.5
20260904005804 81 133 10.0 19.0 0.00 0.00 0.00 52 1013.4
20260904005649 81 206 8.0 18.0 0.00 0.00 0.00 53 1013.4
20260904005140 81 140 6.0 18.0 0.00 0.00 0.00 53 1013.6
20260904004303 81 138 8.0 17.0 0.00 0.00 0.00 53 1013.7
20260904003806 82 159 8.0 15.0 0.00 0.00 0.00 52 1013.7
20260904003534 84 176 9.0 15.0 0.00 0.00 0.00 46 1013.8
20260904003429 83 154 6.0 15.0 0.00 0.00 0.00 48 1013.8
20260904002640 84 145 5.0 16.0 0.00 0.00 0.00 45 1013.6
20260904002038 83 190 7.0 16.0 0.00 0.00 0.00 49 1013.3
20260904001935 84 111 8.0 16.0 0.00 0.00 0.00 47 1013.4
20260904000803 83 100 8.0 17.0 0.00 0.00 0.00 49 1013.3
20260904000305 83 134 9.0 20.0 0.00 0.00 0.00 49 1013.2
20260903235803 84 99 11.0 20.0 0.00 0.00 0.00 48 1013.3
20260903235305 85 110 10.0 21.0 0.00 0.00 0.00 46 1013.3
20260903234805 85 123 13.0 21.0 0.00 0.00 0.00 46 1013.2
20260903234304 85 124 10.0 20.0 0.00 0.00 0.00 47 1013.2
20260903233805 85 121 11.0 21.0 0.00 0.00 0.00 47 1013.2
20260903233303 86 103 12.0 21.0 0.00 0.00 0.00 46 1013.2
20260903232803 86 71 9.0 21.0 0.00 0.00 0.00 44 1013.2
20260903232306 87 114 10.0 20.0 0.00 0.00 0.00 41 1013.3
20260903231814 87 114 9.0 23.0 0.00 0.00 0.00 41 1012.9
20260903231458 86 107 11.0 21.0 0.00 0.00 0.00 43 1012.9
20260903231403 86 82 12.0 23.0 0.00 0.00 0.00 42 1012.8
20260903230649 86 102 11.0 19.0 0.00 0.00 0.00 44 1012.8
20260903225803 86 120 13.0 19.0 0.00 0.00 0.00 44 1012.8
20260903225306 88 75 9.0 16.0 0.00 0.00 0.00 42 1012.7
20260903224803 88 137 7.0 14.0 0.00 0.00 0.00 40 1012.8
20260903224303 89 125 6.0 18.0 0.00 0.00 0.00 39 1013.0
20260903223804 92 120 10.0 18.0 0.00 0.00 0.00 33 1013.2
20260903223304 94 254 6.0 14.0 0.00 0.00 0.00 26 1012.8
20260903222805 95 231 5.0 11.0 0.00 0.00 0.00 27 1012.4
20260903222305 95 266 6.0 15.0 0.00 0.00 0.00 27 1012.3
20260903221803 94 266 6.0 15.0 0.00 0.00 0.00 28 1012.3
20260903221304 94 248 9.0 15.0 0.00 0.00 0.00 27 1012.3
20260903220805 94 295 8.0 16.0 0.00 0.00 0.00 26 1012.2
20260903220303 93 305 6.0 21.0 0.00 0.00 0.00 27 1012.3
20260903215803 93 261 9.0 21.0 0.00 0.00 0.00 26 1012.3
20260903215306 94 252 7.0 19.0 0.00 0.00 0.00 28 1012.3
20260903214804 93 310 7.0 16.0 0.00 0.00 0.00 30 1012.5
20260903214306 94 251 8.0 21.0 0.00 0.00 0.00 29 1012.6
20260903214147 95 274 12.0 21.0 0.00 0.00 0.00 28 1012.7
20260903213531 95 255 9.0 17.0 0.00 0.00 0.00 26 1012.5
20260903212805 95 276 7.0 12.0 0.00 0.00 0.00 27 1012.7
20260903212306 95 282 4.0 12.0 0.00 0.00 0.00 31 1012.7
20260903211807 95 272 4.0 11.0 0.00 0.00 0.00 30 1012.7
20260903211303 94 261 6.0 15.0 0.00 0.00 0.00 30 1012.7
20260903210803 94 269 7.0 15.0 0.00 0.00 0.00 30 1012.7
20260903210307 95 243 6.0 15.0 0.00 0.00 0.00 29 1012.7
20260903205804 96 296 7.0 14.0 0.00 0.00 0.00 29 1012.8
20260903205306 96 213 4.0 14.0 0.00 0.00 0.00 29 1012.8
20260903204804 96 219 4.0 14.0 0.00 0.00 0.00 28 1012.8
20260903204302 97 196 6.0 11.0 0.00 0.00 0.00 28 1012.8
20260903203803 98 204 4.0 11.0 0.00 0.00 0.00 27 1012.8
20260903203304 99 149 3.0 12.0 0.00 0.00 0.00 25 1012.9
20260903202804 101 166 4.0 12.0 0.00 0.00 0.00 26 1012.8
20260903202306 100 82 3.0 7.0 0.00 0.00 0.00 27 1012.9
20260903201808 99 275 4.0 7.0 0.00 0.00 0.00 27 1013.0
20260903201305 99 186 2.0 7.0 0.00 0.00 0.00 28 1013.2
20260903201132 101 116 2.0 11.0 0.00 0.00 0.00 27 1013.3
20260903200303 99 131 3.0 11.0 0.00 0.00 0.00 28 1013.3
20260903195803 98 251 6.0 11.0 0.00 0.00 0.00 27 1013.5
20260903195306 99 224 4.0 16.0 0.00 0.00 0.00 27 1013.4
20260903194809 100 182 8.0 16.0 0.00 0.00 0.00 25 1013.6
20260903194303 102 141 7.0 11.0 0.00 0.00 0.00 25 1013.6
20260903193803 101 123 4.0 10.0 0.00 0.00 0.00 26 1013.6
20260903193303 101 118 2.0 10.0 0.00 0.00 0.00 26 1013.6
20260903192803 101 217 4.0 9.0 0.00 0.00 0.00 26 1013.7
20260903192306 101 183 5.0 10.0 0.00 0.00 0.00 28 1013.7
20260903191802 101 231 4.0 11.0 0.00 0.00 0.00 28 1013.9
20260903191303 101 254 5.0 11.0 0.00 0.00 0.00 28 1014.0
20260903190805 100 183 4.0 7.0 0.00 0.00 0.00 29 1014.0
20260903190637 100 293 2.0 9.0 0.00 0.00 0.00 28 1014.2
20260903185803 99 223 5.0 9.0 0.00 0.00 0.00 28 1014.2
20260903185306 100 258 2.0 9.0 0.00 0.00 0.00 29 1014.4
20260903185136 100 210 2.0 9.0 0.00 0.00 0.00 28 1014.4
20260903184303 99 221 5.0 11.0 0.00 0.00 0.00 29 1014.5
20260903183803 99 298 3.0 11.0 0.00 0.00 0.00 28 1014.5
20260903183303 100 257 5.0 11.0 0.00 0.00 0.00 28 1014.6
20260903182804 100 237 6.0 11.0 0.00 0.00 0.00 29 1014.7
20260903182306 99 173 6.0 11.0 0.00 0.00 0.00 29 1014.7
20260903181803 98 324 5.0 10.0 0.00 0.00 0.00 30 1014.8
20260903181607 98 251 5.0 10.0 0.00 0.00 0.00 33 1014.9
20260903180805 98 223 4.0 13.0 0.00 0.00 0.00 29 1014.9
20260903180303 97 219 6.0 13.0 0.00 0.00 0.00 31 1015.2
20260903175807 98 243 5.0 11.0 0.00 0.00 0.00 30 1015.2
20260903175308 99 279 5.0 11.0 0.00 0.00 0.00 30 1015.2
20260903174805 98 259 5.0 11.0 0.00 0.00 0.00 32 1015.3
20260903174304 98 245 4.0 11.0 0.00 0.00 0.00 31 1015.2
20260903173803 97 204 5.0 12.0 0.00 0.00 0.00 32 1015.4
20260903173657 97 234 8.0 12.0 0.00 0.00 0.00 32 1015.4
20260903173030 97 233 7.0 12.0 0.00 0.00 0.00 32 1015.4
20260903172809 97 233 7.0 12.0 0.00 0.00 0.00 32 1015.4
20260903172306 96 268 4.0 13.0 0.00 0.00 0.00 32 1015.3
20260903171803 96 193 5.0 15.0 0.00 0.00 0.00 33 1015.4
20260903171304 96 259 8.0 16.0 0.00 0.00 0.00 33 1015.5
20260903170804 95 226 5.0 16.0 0.00 0.00 0.00 34 1015.5
20260903170309 95 159 7.0 14.0 0.00 0.00 0.00 34 1015.5
20260903165804 95 283 7.0 13.0 0.00 0.00 0.00 34 1015.6
20260903165305 95 274 8.0 14.0 0.00 0.00 0.00 34 1015.5
20260903164807 94 243 6.0 17.0 0.00 0.00 0.00 35 1015.5
20260903164304 94 231 6.0 17.0 0.00 0.00 0.00 34 1015.4
20260903163804 94 221 8.0 16.0 0.00 0.00 0.00 36 1015.5
20260903163653 94 216 7.0 16.0 0.00 0.00 0.00 36 1015.5
20260903162807 94 151 2.0 10.0 0.00 0.00 0.00 38 1015.5
20260903162306 93 241 3.0 10.0 0.00 0.00 0.00 39 1015.5
20260903161803 93 216 5.0 10.0 0.00 0.00 0.00 40 1015.6
20260903161303 91 245 4.0 11.0 0.00 0.00 0.00 40 1015.5
20260903161141 91 231 5.0 13.0 0.00 0.00 0.00 39 1015.6
20260903160304 91 275 7.0 13.0 0.00 0.00 0.00 40 1015.7
20260903155803 90 196 4.0 15.0 0.00 0.00 0.00 43 1015.7
20260903155306 89 212 5.0 15.0 0.00 0.00 0.00 42 1015.7
20260903154802 88 217 7.0 13.0 0.00 0.00 0.00 43 1015.7
20260903154302 88 226 4.0 10.0 0.00 0.00 0.00 44 1015.6
20260903153804 87 220 6.0 10.0 0.00 0.00 0.00 46 1015.6
20260903153303 86 226 5.0 12.0 0.00 0.00 0.00 46 1015.7
20260903152801 85 265 5.0 13.0 0.00 0.00 0.00 45 1015.7
20260903152306 85 243 4.0 13.0 0.00 0.00 0.00 47 1015.7
20260903151802 84 199 6.0 13.0 0.00 0.00 0.00 47 1015.7
20260903151303 83 255 6.0 13.0 0.00 0.00 0.00 48 1015.7
20260903150806 83 135 4.0 11.0 0.00 0.00 0.00 51 1015.8
20260903150301 82 197 5.0 11.0 0.00 0.00 0.00 49 1015.8
20260903145804 81 216 4.0 11.0 0.00 0.00 0.00 52 1015.9
20260903145305 80 238 6.0 11.0 0.00 0.00 0.00 51 1015.8
20260903144803 79 212 3.0 7.0 0.00 0.00 0.00 53 1015.8
20260903144303 78 230 4.0 11.0 0.00 0.00 0.00 54 1015.8
20260903143803 77 186 3.0 11.0 0.00 0.00 0.00 55 1015.8
20260903143303 78 227 3.0 10.0 0.00 0.00 0.00 54 1015.8
20260903142803 77 193 4.0 7.0 0.00 0.00 0.00 56 1015.8
20260903142305 76 178 4.0 7.0 0.00 0.00 0.00 56 1015.7
20260903141803 75 183 4.0 7.0 0.00 0.00 0.00 57 1015.7
20260903141301 75 179 3.0 7.0 0.00 0.00 0.00 58 1015.7
20260903140804 74 216 4.0 7.0 0.00 0.00 0.00 59 1015.7
20260903140303 74 213 3.0 5.0 0.00 0.00 0.00 59 1015.8
20260903135809 73 103 3.0 5.0 0.00 0.00 0.00 58 1015.8
20260903135306 73 164 2.0 6.0 0.00 0.00 0.00 59 1015.8
20260903134803 73 149 3.0 6.0 0.00 0.00 0.00 59 1015.8
20260903134302 73 131 3.0 7.0 0.00 0.00 0.00 59 1015.8
20260903133802 73 172 4.0 7.0 0.00 0.00 0.00 59 1015.9
20260903133304 72 247 3.0 6.0 0.00 0.00 0.00 59 1015.8
20260903133136 72 182 2.0 6.0 0.00 0.00 0.00 59 1015.8
20260903132652 72 141 4.0 6.0 0.00 0.00 0.00 60 1015.7
20260903131803 72 180 3.0 6.0 0.00 0.00 0.00 60 1015.6
20260903131303 71 158 2.0 5.0 0.00 0.00 0.00 60 1015.6
20260903131150 71 107 3.0 5.0 0.00 0.00 0.00 59 1015.6
20260903130302 71 147 2.0 5.0 0.00 0.00 0.00 59 1015.6
20260903130147 71 134 2.0 5.0 0.00 0.00 0.00 59 1015.6
20260903125531 71 186 2.0 5.0 0.00 0.00 0.00 59 1015.5
20260903125310 71 186 2.0 5.0 0.00 0.00 0.00 59 1015.5
20260903124802 71 128 2.0 5.0 0.00 0.00 0.00 59 1015.4
20260903124303 71 158 3.0 5.0 0.00 0.00 0.00 59 1015.4
20260903123802 71 189 3.0 6.0 0.00 0.00 0.00 60 1015.4
20260903123307 71 166 3.0 6.0 0.00 0.00 0.00 59 1015.4
20260903122803 70 151 2.0 6.0 0.00 0.00 0.00 59 1015.4
20260903122305 70 158 2.0 6.0 0.00 0.00 0.00 59 1015.2
20260903121803 70 157 4.0 6.0 0.00 0.00 0.00 59 1015.2
20260903121301 70 183 2.0 6.0 0.00 0.00 0.00 59 1015.2
20260903121133 70 158 3.0 5.0 0.00 0.00 0.00 59 1015.3
20260903120303 71 109 2.0 5.0 0.00 0.00 0.00 58 1015.2
20260903115802 71 154 3.0 7.0 0.00 0.00 0.00 58 1015.2
20260903115305 71 147 2.0 7.0 0.00 0.00 0.00 58 1015.2
20260903114810 71 195 4.0 6.0 0.00 0.00 0.00 58 1015.2
20260903114304 71 110 3.0 6.0 0.00 0.00 0.00 57 1015.3
20260903113803 71 189 2.0 6.0 0.00 0.00 0.00 57 1015.2
20260903113302 71 213 3.0 9.0 0.00 0.00 0.00 58 1015.2
20260903112825 71 182 4.0 9.0 0.00 0.00 0.00 59 1015.2
20260903112417 70 173 3.0 6.0 0.00 0.00 0.00 59 1015.1
20260903111303 71 204 3.0 7.0 0.00 0.00 0.00 59 1015.2
20260903110802 71 133 3.0 7.0 0.00 0.00 0.00 58 1015.3
20260903110302 71 140 1.0 7.0 0.00 0.00 0.00 58 1015.3
20260903105801 71 138 3.0 9.0 0.00 0.00 0.00 59 1015.3
20260903105301 71 196 3.0 9.0 0.00 0.00 0.00 60 1015.2
20260903104803 70 185 2.0 6.0 0.00 0.00 0.00 61 1015.3
20260903104302 70 121 3.0 7.0 0.00 0.00 0.00 61 1015.4
20260903104128 71 155 4.0 7.0 0.00 0.00 0.00 61 1015.3
20260903103304 71 92 2.0 9.0 0.00 0.00 0.00 61 1015.3
20260903102804 71 118 4.0 9.0 0.00 0.00 0.00 59 1015.4
20260903102305 72 110 3.0 9.0 0.00 0.00 0.00 56 1015.4
20260903101802 73 104 3.0 12.0 0.00 0.00 0.00 55 1015.4
20260903101632 73 147 5.0 12.0 0.00 0.00 0.00 55 1015.3
20260903100804 73 185 4.0 10.0 0.00 0.00 0.00 56 1015.3
20260903100511 72 152 5.0 10.0 0.00 0.00 0.00 57 1015.4
20260903100421 73 171 5.0 10.0 0.00 0.00 0.00 56 1015.3
20260903095520 72 192 4.0 6.0 0.00 0.00 0.00 59 1015.5
20260903095424 72 154 4.0 7.0 0.00 0.00 0.00 57 1015.4
20260903094629 72 217 3.0 6.0 0.00 0.00 0.00 59 1015.5
20260903093803 72 165 3.0 7.0 0.00 0.00 0.00 58 1015.6
20260903093540 72 123 3.0 7.0 0.00 0.00 0.00 58 1015.6
20260903093133 73 142 4.0 7.0 0.00 0.00 0.00 57 1015.7
20260903092306 73 185 2.0 7.0 0.00 0.00 0.00 56 1015.6
20260903092106 73 109 4.0 7.0 0.00 0.00 0.00 56 1015.6
20260903091303 73 86 4.0 10.0 0.00 0.00 0.00 56 1015.6
20260903091127 73 178 5.0 10.0 0.00 0.00 0.00 56 1015.5
20260903090302 74 247 4.0 9.0 0.00 0.00 0.00 55 1015.6
20260903085806 74 140 3.0 9.0 0.00 0.00 0.00 55 1015.6
20260903085305 74 171 5.0 9.0 0.00 0.00 0.00 54 1015.7
20260903084803 74 171 3.0 7.0 0.00 0.00 0.00 54 1015.7
20260903084302 74 186 3.0 9.0 0.00 0.00 0.00 53 1015.7
20260903083802 75 147 4.0 10.0 0.00 0.00 0.00 53 1015.8
20260903083304 75 149 3.0 10.0 0.00 0.00 0.00 52 1015.7
20260903082802 75 123 4.0 10.0 0.00 0.00 0.00 52 1015.6
20260903082306 75 134 4.0 10.0 0.00 0.00 0.00 52 1015.6
20260903081802 76 140 5.0 9.0 0.00 0.00 0.00 51 1015.6
20260903081336 76 154 4.0 10.0 0.00 0.00 0.00 50 1015.7
20260903081327 76 147 3.0 9.0 0.00 0.00 0.00 50 1015.7
20260903081315 76 114 3.0 7.0 0.00 0.00 0.00 50 1015.6
20260903075802 76 131 5.0 10.0 0.00 0.00 0.00 49 1015.7
20260903075310 76 124 4.0 11.0 0.00 0.00 0.00 49 1015.8
20260903074803 76 148 4.0 11.0 0.00 0.00 0.00 49 1015.7
20260903074302 76 159 4.0 10.0 0.00 0.00 0.00 49 1015.7
20260903073802 76 138 4.0 10.0 0.00 0.00 0.00 50 1015.7
20260903073302 76 152 4.0 11.0 0.00 0.00 0.00 51 1015.7
20260903072802 76 138 3.0 11.0 0.00 0.00 0.00 51 1015.6
20260903072626 75 162 4.0 9.0 0.00 0.00 0.00 51 1015.7
20260903071803 76 142 4.0 10.0 0.00 0.00 0.00 51 1015.7
20260903071307 75 145 4.0 11.0 0.00 0.00 0.00 51 1015.7
20260903070803 76 234 5.0 11.0 0.00 0.00 0.00 51 1015.7
20260903070302 76 123 4.0 9.0 0.00 0.00 0.00 51 1015.6
20260903065803 76 128 2.0 9.0 0.00 0.00 0.00 51 1015.7
20260903065415 76 154 3.0 9.0 0.00 0.00 0.00 50 1015.7
20260903065341 76 137 3.0 9.0 0.00 0.00 0.00 51 1015.7
20260903064814 76 154 3.0 9.0 0.00 0.00 0.00 50 1015.7
20260903064302 76 152 4.0 9.0 0.00 0.00 0.00 50 1015.7
20260903064128 77 142 2.0 9.0 0.00 0.00 0.00 50 1015.7
20260903063307 76 109 5.0 10.0 0.00 0.00 0.00 50 1015.6
20260903063133 76 192 4.0 10.0 0.00 0.00 0.00 51 1015.7
20260903062306 76 104 5.0 10.0 0.00 0.00 0.00 51 1015.7
20260903061801 76 123 4.0 10.0 0.00 0.00 0.00 51 1015.7
20260903061301 77 180 4.0 9.0 0.00 0.00 0.00 51 1015.6
20260903060803 77 151 3.0 9.0 0.00 0.00 0.00 51 1015.6
20260903060301 77 165 4.0 10.0 0.00 0.00 0.00 51 1015.6
20260903055804 77 114 4.0 10.0 0.00 0.00 0.00 51 1015.6
20260903055301 77 186 4.0 10.0 0.00 0.00 0.00 51 1015.6
20260903054802 77 140 3.0 10.0 0.00 0.00 0.00 51 1015.5
20260903054300 77 202 5.0 9.0 0.00 0.00 0.00 52 1015.6
20260903053819 78 200 5.0 9.0 0.00 0.00 0.00 51 1015.5
20260903053810 78 158 4.0 9.0 0.00 0.00 0.00 51 1015.5
20260903053803 78 193 4.0 9.0 0.00 0.00 0.00 51 1015.5
20260903052324 79 183 4.0 10.0 0.00 0.00 0.00 50 1015.5
20260903052317 79 144 4.0 9.0 0.00 0.00 0.00 50 1015.4
20260903052308 78 173 4.0 9.0 0.00 0.00 0.00 51 1015.4
20260903050802 79 175 4.0 10.0 0.00 0.00 0.00 51 1015.4
20260903050300 79 192 2.0 6.0 0.00 0.00 0.00 50 1015.4
20260903045801 80 123 4.0 9.0 0.00 0.00 0.00 49 1015.4
20260903045301 80 151 3.0 9.0 0.00 0.00 0.00 49 1015.5
20260903044802 80 137 4.0 10.0 0.00 0.00 0.00 48 1015.4
20260903044627 80 152 3.0 10.0 0.00 0.00 0.00 48 1015.4
20260903043802 80 171 4.0 9.0 0.00 0.00 0.00 48 1015.4
20260903043302 81 137 5.0 9.0 0.00 0.00 0.00 48 1015.3
20260903042801 80 114 4.0 9.0 0.00 0.00 0.00 48 1015.3
20260903042305 81 152 4.0 9.0 0.00 0.00 0.00 48 1015.3
20260903041801 81 123 4.0 9.0 0.00 0.00 0.00 48 1015.3
20260903041303 80 166 4.0 10.0 0.00 0.00 0.00 49 1015.4
20260903040802 80 165 4.0 10.0 0.00 0.00 0.00 49 1015.3
20260903040301 80 144 3.0 10.0 0.00 0.00 0.00 49 1015.3
20260903035957 81 161 3.0 7.0 0.00 0.00 0.00 48 1015.3
20260903035913 81 161 3.0 10.0 0.00 0.00 0.00 49 1015.3
20260903034801 81 155 3.0 7.0 0.00 0.00 0.00 48 1015.3
20260903034303 81 154 4.0 7.0 0.00 0.00 0.00 48 1015.3
20260903033803 81 155 2.0 9.0 0.00 0.00 0.00 47 1015.3
20260903033301 81 164 2.0 9.0 0.00 0.00 0.00 48 1015.4
20260903032950 81 158 4.0 9.0 0.00 0.00 0.00 48 1015.3
20260903032909 81 169 4.0 9.0 0.00 0.00 0.00 48 1015.4
20260903031803 82 164 3.0 7.0 0.00 0.00 0.00 47 1015.3
20260903031300 82 94 4.0 7.0 0.00 0.00 0.00 47 1015.2
20260903030801 82 111 3.0 9.0 0.00 0.00 0.00 47 1015.2
20260903030452 82 179 4.0 7.0 0.00 0.00 0.00 47 1015.1
20260903030406 81 168 4.0 9.0 0.00 0.00 0.00 47 1015.1
20260903025301 82 99 3.0 11.0 0.00 0.00 0.00 47 1014.9
20260903024801 82 148 4.0 11.0 0.00 0.00 0.00 47 1014.9
20260903024301 82 76 4.0 10.0 0.00 0.00 0.00 47 1014.9
20260903023802 82 110 5.0 9.0 0.00 0.00 0.00 47 1014.8
20260903023301 82 144 2.0 9.0 0.00 0.00 0.00 47 1014.7
20260903022801 82 140 4.0 9.0 0.00 0.00 0.00 47 1014.7
20260903022624 82 172 4.0 7.0 0.00 0.00 0.00 47 1014.7
20260903021801 82 155 4.0 7.0 0.00 0.00 0.00 46 1014.8
20260903021453 82 135 3.0 9.0 0.00 0.00 0.00 46 1014.6
20260903021409 82 149 4.0 9.0 0.00 0.00 0.00 46 1014.7
20260903020453 83 103 3.0 9.0 0.00 0.00 0.00 45 1014.6
20260903020411 82 154 4.0 7.0 0.00 0.00 0.00 46 1014.6
20260903015305 83 142 3.0 9.0 0.00 0.00 0.00 45 1014.6
20260903014803 83 148 4.0 6.0 0.00 0.00 0.00 45 1014.6
20260903014302 83 145 4.0 7.0 0.00 0.00 0.00 44 1014.6
20260903013801 83 168 3.0 7.0 0.00 0.00 0.00 44 1014.7